createdAt,value
2018-07-02T00:00:03.296Z,36.71
2018-07-02T00:02:31.402Z,36.47
2018-07-02T00:04:59.565Z,36.74
2018-07-02T00:07:29.273Z,36.50
2018-07-02T00:09:57.517Z,36.36
2018-07-02T00:12:25.849Z,36.52
2018-07-02T00:14:54.600Z,36.06
2018-07-02T00:17:22.798Z,36.75
2018-07-02T00:19:51.135Z,36.66
2018-07-02T00:22:19.377Z,36.52
2018-07-02T00:24:47.587Z,36.64
2018-07-02T00:27:15.974Z,36.75
2018-07-02T00:29:44.260Z,37.10
2018-07-02T00:32:12.496Z,36.51
2018-07-02T00:34:40.846Z,37.18
2018-07-02T00:37:09.541Z,36.91
2018-07-02T00:39:37.999Z,37.02
2018-07-02T00:42:06.259Z,37.10
2018-07-02T00:44:34.406Z,36.58
2018-07-02T00:47:02.815Z,37.13
2018-07-02T00:49:31.326Z,37.44
2018-07-02T00:52:00.736Z,37.51
2018-07-02T00:54:29.269Z,37.36
2018-07-02T00:56:57.793Z,37.10
2018-07-02T00:59:26.325Z,37.44
2018-07-02T01:01:55.418Z,37.51
2018-07-02T01:04:23.692Z,37.70
2018-07-02T01:06:52.429Z,37.62
2018-07-02T01:09:21.623Z,37.49
2018-07-02T01:11:50.224Z,38.14
2018-07-02T01:14:18.803Z,37.92
2018-07-02T01:16:47.214Z,38.39
2018-07-02T01:19:15.593Z,37.58
2018-07-02T01:21:44.106Z,38.10
2018-07-02T01:24:12.913Z,38.03
2018-07-02T01:26:41.609Z,38.79
2018-07-02T01:29:10.122Z,38.69
2018-07-02T01:31:39.291Z,38.53
2018-07-02T01:34:07.547Z,38.40
2018-07-02T01:36:36.393Z,39.32
2018-07-02T01:39:08.065Z,38.40
2018-07-02T01:41:36.573Z,38.97
2018-07-02T01:44:04.927Z,38.95
2018-07-02T01:46:33.324Z,38.64
2018-07-02T01:49:01.869Z,39.19
2018-07-02T01:51:30.249Z,39.44
2018-07-02T01:53:58.938Z,39.15
2018-07-02T01:56:27.430Z,39.36
2018-07-02T01:59:00.050Z,39.46
2018-07-02T02:01:28.547Z,39.99
2018-07-02T02:03:56.905Z,39.87
2018-07-02T02:06:25.459Z,39.88
2018-07-02T02:08:54.045Z,39.36
2018-07-02T02:11:22.560Z,40.51
2018-07-02T02:13:50.858Z,40.36
2018-07-02T02:16:19.614Z,40.26
2018-07-02T02:18:47.926Z,40.37
2018-07-02T02:21:16.252Z,41.22
2018-07-02T02:23:49.191Z,41.35
2018-07-02T02:26:18.091Z,40.88
2018-07-02T02:28:46.467Z,41.16
2018-07-02T02:31:14.976Z,41.75
2018-07-02T02:33:44.282Z,41.23
2018-07-02T02:36:17.194Z,41.10
2018-07-02T02:38:45.540Z,41.88
2018-07-02T02:41:14.489Z,41.16
2018-07-02T02:43:43.117Z,41.94
2018-07-02T02:46:11.469Z,42.22
2018-07-02T02:48:39.678Z,41.48
2018-07-02T02:51:07.937Z,41.31
2018-07-02T02:53:36.179Z,41.77
2018-07-02T02:56:04.531Z,41.83
2018-07-02T02:58:32.883Z,41.63
2018-07-02T03:01:01.325Z,42.42
2018-07-02T03:03:34.498Z,42.38
2018-07-02T03:06:02.972Z,43.00
2018-07-02T03:08:31.497Z,42.70
2018-07-02T03:10:59.729Z,42.31
2018-07-02T03:13:28.011Z,42.02
2018-07-02T03:15:56.202Z,42.14
2018-07-02T03:18:24.925Z,42.15
2018-07-02T03:20:53.276Z,42.30
2018-07-02T03:23:21.483Z,42.75
2018-07-02T03:25:49.926Z,43.28
2018-07-02T03:28:18.227Z,43.12
2018-07-02T03:30:46.654Z,43.58
2018-07-02T03:33:15.350Z,42.55
2018-07-02T03:35:43.589Z,42.92
2018-07-02T03:38:11.784Z,43.02
2018-07-02T03:40:40.106Z,43.27
2018-07-02T03:43:08.603Z,42.78
2018-07-02T03:45:36.931Z,43.09
2018-07-02T03:48:05.194Z,43.39
2018-07-02T03:50:33.519Z,43.39
2018-07-02T03:53:01.878Z,43.36
2018-07-02T03:55:30.067Z,43.40
2018-07-02T03:57:58.666Z,43.00
2018-07-02T04:00:27.461Z,43.71
2018-07-02T04:02:55.804Z,42.85
2018-07-02T04:05:24.082Z,42.93
2018-07-02T04:07:52.265Z,42.87
2018-07-02T04:10:20.411Z,42.79
2018-07-02T04:12:48.688Z,43.67
2018-07-02T04:15:17.154Z,43.63
2018-07-02T04:17:45.352Z,43.17
2018-07-02T04:20:13.792Z,43.46
2018-07-02T04:22:42.025Z,43.74
2018-07-02T04:25:10.820Z,43.30
2018-07-02T04:27:39.053Z,43.00
2018-07-02T04:30:07.395Z,43.12
2018-07-02T04:32:35.790Z,43.78
2018-07-02T04:35:04.260Z,43.32
2018-07-02T04:37:32.367Z,43.61
2018-07-02T04:40:00.557Z,43.25
2018-07-02T04:42:29.221Z,43.34
2018-07-02T04:44:57.522Z,43.74
2018-07-02T04:47:25.691Z,43.89
2018-07-02T04:49:53.900Z,43.31
2018-07-02T04:52:22.105Z,43.88
2018-07-02T04:54:50.358Z,43.89
2018-07-02T04:57:18.666Z,43.59
2018-07-02T04:59:46.969Z,44.31
2018-07-02T05:02:15.305Z,44.20
2018-07-02T05:04:44.057Z,44.16
2018-07-02T05:07:12.272Z,43.54
2018-07-02T05:09:40.879Z,43.70
2018-07-02T05:12:10.465Z,43.76
2018-07-02T05:14:40.031Z,44.25
2018-07-02T05:17:08.362Z,43.75
2018-07-02T05:19:36.631Z,44.66
2018-07-02T05:22:05.257Z,43.90
2018-07-02T05:24:34.273Z,42.72
2018-07-02T05:27:02.538Z,43.38
2018-07-02T05:29:30.953Z,43.22
2018-07-02T05:31:59.234Z,43.04
2018-07-02T05:34:27.589Z,43.60
2018-07-02T05:36:56.052Z,43.97
2018-07-02T05:39:24.402Z,43.04
2018-07-02T05:41:52.897Z,42.38
2018-07-02T05:44:21.328Z,41.14
2018-07-02T05:46:49.743Z,40.28
2018-07-02T05:49:18.079Z,38.93
2018-07-02T05:51:46.650Z,34.71
2018-07-02T05:54:15.049Z,34.47
2018-07-02T05:56:44.174Z,31.09
2018-07-02T05:59:12.445Z,30.74
2018-07-02T06:01:40.712Z,29.03
2018-07-02T06:04:08.925Z,28.27
2018-07-02T06:06:37.686Z,29.29
2018-07-02T06:09:09.623Z,28.42
2018-07-02T06:11:39.233Z,29.09
2018-07-02T06:14:07.708Z,28.41
2018-07-02T06:16:35.891Z,25.94
2018-07-02T06:19:05.230Z,25.95
2018-07-02T06:21:33.463Z,27.19
2018-07-02T06:24:01.788Z,27.59
2018-07-02T06:26:30.119Z,24.06
2018-07-02T06:28:58.319Z,25.64
2018-07-02T06:31:26.895Z,27.55
2018-07-02T06:33:55.080Z,26.87
2018-07-02T06:36:23.442Z,26.39
2018-07-02T06:38:51.675Z,25.52
2018-07-02T06:41:19.888Z,26.17
2018-07-02T06:43:48.374Z,25.47
2018-07-02T06:46:16.968Z,22.80
2018-07-02T06:48:45.248Z,23.64
2018-07-02T06:51:13.485Z,24.75
2018-07-02T06:53:42.885Z,22.93
2018-07-02T06:56:11.163Z,30.16
2018-07-02T06:58:39.367Z,29.72
2018-07-02T07:01:08.183Z,25.04
2018-07-02T07:03:36.449Z,23.53
2018-07-02T07:06:04.710Z,22.99
2018-07-02T07:08:33.000Z,27.84
2018-07-02T07:11:01.246Z,27.23
2018-07-02T07:13:30.148Z,26.93
2018-07-02T07:15:58.395Z,28.77
2018-07-02T07:18:27.744Z,30.21
2018-07-02T07:20:56.018Z,25.28
2018-07-02T07:23:24.246Z,25.07
2018-07-02T07:25:52.640Z,27.84
2018-07-02T07:28:21.061Z,26.04
2018-07-02T07:30:49.344Z,28.41
2018-07-02T07:33:17.785Z,28.75
2018-07-02T07:35:46.536Z,32.41
2018-07-02T07:38:14.803Z,34.96
2018-07-02T07:40:43.058Z,37.25
2018-07-02T07:43:11.312Z,38.21
2018-07-02T07:45:39.601Z,37.40
2018-07-02T07:48:07.985Z,36.78
2018-07-02T07:50:36.332Z,38.92
2018-07-02T07:53:04.618Z,37.92
2018-07-02T07:55:33.024Z,37.54
2018-07-02T07:58:01.608Z,37.45
2018-07-02T08:00:30.010Z,36.43
2018-07-02T08:02:58.242Z,36.89
2018-07-02T08:05:27.410Z,37.21
2018-07-02T08:07:55.781Z,37.23
2018-07-02T08:10:24.099Z,37.62
2018-07-02T08:12:52.189Z,37.14
2018-07-02T08:15:20.634Z,36.54
2018-07-02T08:17:49.403Z,36.73
2018-07-02T08:20:17.627Z,36.42
2018-07-02T08:22:46.171Z,35.62
2018-07-02T08:25:14.437Z,35.56
2018-07-02T08:27:42.772Z,35.98
2018-07-02T08:30:11.331Z,36.06
2018-07-02T08:32:39.711Z,35.94
2018-07-02T08:35:08.004Z,36.05
2018-07-02T08:37:36.359Z,35.05
2018-07-02T08:43:46.786Z,37.18
2018-07-02T08:46:14.939Z,36.34
2018-07-02T08:48:43.107Z,36.25
2018-07-02T08:51:11.420Z,35.34
2018-07-02T08:53:39.738Z,35.87
2018-07-02T08:56:07.876Z,36.04
2018-07-02T08:58:36.262Z,35.51
2018-07-02T09:01:04.693Z,35.07
2018-07-02T09:03:33.058Z,34.50
2018-07-02T09:06:01.386Z,34.50
2018-07-02T09:08:29.603Z,34.20
2018-07-02T09:10:57.888Z,33.23
2018-07-02T09:13:26.259Z,33.78
2018-07-02T09:15:55.091Z,33.19
2018-07-02T09:18:23.494Z,35.46
2018-07-02T09:20:51.758Z,34.37
2018-07-02T09:23:20.049Z,35.17
2018-07-02T09:25:48.821Z,34.82
2018-07-02T09:28:17.039Z,34.19
2018-07-02T09:30:45.377Z,32.12
2018-07-02T09:33:13.883Z,32.21
2018-07-02T09:35:42.851Z,32.13
2018-07-02T09:38:11.061Z,32.07
2018-07-02T09:40:39.288Z,33.44
2018-07-02T09:43:07.726Z,32.30
2018-07-02T09:45:35.953Z,33.02
2018-07-02T09:48:04.300Z,32.45
2018-07-02T09:50:32.648Z,32.86
2018-07-02T09:53:00.910Z,33.76
2018-07-02T09:55:29.193Z,32.66
2018-07-02T09:57:58.018Z,31.94
2018-07-02T10:00:26.581Z,32.62
2018-07-02T10:02:54.955Z,33.38
2018-07-02T10:05:23.356Z,33.62
2018-07-02T10:07:52.204Z,32.50
2018-07-02T10:10:20.664Z,32.23
2018-07-02T10:12:49.030Z,32.44
2018-07-02T10:15:17.217Z,33.15
2018-07-02T10:17:46.672Z,32.48
2018-07-02T10:20:14.939Z,31.86
2018-07-02T10:22:43.209Z,31.07
2018-07-02T10:25:11.528Z,31.18
2018-07-02T10:27:39.810Z,30.58
2018-07-02T10:30:08.121Z,31.32
2018-07-02T10:32:36.473Z,30.72
2018-07-02T10:35:04.877Z,31.36
2018-07-02T10:37:33.242Z,31.75
2018-07-02T10:40:01.943Z,29.97
2018-07-02T10:42:30.103Z,30.11
2018-07-02T10:44:58.451Z,30.05
2018-07-02T10:47:26.671Z,29.11
2018-07-02T10:49:55.115Z,28.92
2018-07-02T10:52:23.530Z,30.96
2018-07-02T10:54:51.768Z,29.20
2018-07-02T10:57:20.147Z,29.35
2018-07-02T10:59:49.242Z,29.96
2018-07-02T11:02:17.443Z,28.89
2018-07-02T11:04:45.771Z,29.83
2018-07-02T11:07:14.110Z,30.24
2018-07-02T11:09:42.584Z,30.39
2018-07-02T11:12:10.871Z,30.04
2018-07-02T11:14:39.119Z,29.77
2018-07-02T11:17:07.591Z,28.48
2018-07-02T11:19:36.019Z,27.92
2018-07-02T11:22:04.743Z,29.43
2018-07-02T11:24:33.098Z,29.23
2018-07-02T11:27:01.423Z,29.37
2018-07-02T11:29:29.801Z,29.58
2018-07-02T11:31:58.469Z,28.05
2018-07-02T11:34:26.843Z,29.84
2018-07-02T11:36:56.056Z,29.57
2018-07-02T11:39:24.324Z,28.88
2018-07-02T11:41:53.090Z,28.33
2018-07-02T11:44:21.373Z,27.99
2018-07-02T11:46:50.127Z,27.93
2018-07-02T11:49:18.451Z,27.14
2018-07-02T11:51:46.881Z,28.48
2018-07-02T11:54:15.378Z,28.40
2018-07-02T11:56:43.776Z,27.01
2018-07-02T11:59:12.122Z,28.40
2018-07-02T12:01:40.746Z,27.23
2018-07-02T12:04:10.498Z,27.02
2018-07-02T12:06:38.838Z,29.19
2018-07-02T12:09:10.273Z,28.45
2018-07-02T12:11:38.812Z,29.31
2018-07-02T12:14:07.790Z,28.57
2018-07-02T12:16:36.107Z,26.94
2018-07-02T12:19:04.568Z,26.56
2018-07-02T12:21:33.355Z,26.56
2018-07-02T12:24:01.755Z,26.35
2018-07-02T12:26:30.266Z,27.67
2018-07-02T12:28:58.740Z,27.06
2018-07-02T12:31:27.128Z,26.98
2018-07-02T12:33:56.099Z,26.50
2018-07-02T12:36:24.455Z,26.76
2018-07-02T12:38:59.226Z,26.80
2018-07-02T12:41:27.979Z,26.74
2018-07-02T12:44:01.268Z,25.25
2018-07-02T12:46:29.687Z,26.25
2018-07-02T12:49:02.628Z,26.82
2018-07-02T12:51:31.157Z,27.24
2018-07-02T12:53:59.546Z,27.51
2018-07-02T12:56:28.221Z,26.20
2018-07-02T12:58:57.660Z,26.21
2018-07-02T13:01:26.749Z,26.31
2018-07-02T13:03:55.583Z,27.05
2018-07-02T13:06:23.915Z,26.36
2018-07-02T13:08:52.424Z,26.53
2018-07-02T13:11:20.721Z,25.75
2018-07-02T13:13:50.767Z,26.49
2018-07-02T13:16:19.238Z,25.80
2018-07-02T13:18:47.654Z,25.83
2018-07-02T13:21:16.554Z,26.75
2018-07-02T13:23:45.225Z,27.27
2018-07-02T13:26:14.319Z,26.76
2018-07-02T13:28:42.701Z,26.73
2018-07-02T13:31:11.379Z,26.31
2018-07-02T13:33:40.081Z,25.83
2018-07-02T13:36:08.388Z,25.78
2018-07-02T13:38:36.750Z,26.06
2018-07-02T13:41:05.356Z,26.48
2018-07-02T13:43:34.010Z,26.30
2018-07-02T13:46:04.305Z,24.64
2018-07-02T13:48:34.184Z,25.21
2018-07-02T13:51:08.581Z,25.87
2018-07-02T13:53:37.063Z,25.14
2018-07-02T13:56:06.091Z,26.03
2018-07-02T13:58:35.130Z,26.06
2018-07-02T14:01:04.245Z,26.42
2018-07-02T14:03:38.351Z,25.38
2018-07-02T14:06:12.565Z,26.70
2018-07-02T14:08:43.304Z,27.09
2018-07-02T14:11:11.691Z,26.45
2018-07-02T14:13:40.240Z,25.54
2018-07-02T14:16:14.252Z,25.09
2018-07-02T14:18:42.736Z,25.98
2018-07-02T14:21:11.246Z,25.87
2018-07-02T14:23:39.522Z,25.33
2018-07-02T14:26:08.008Z,25.47
2018-07-02T14:28:36.325Z,24.67
2018-07-02T14:31:05.271Z,25.61
2018-07-02T14:33:33.853Z,25.17
2018-07-02T14:36:03.136Z,25.96
2018-07-02T14:38:36.255Z,25.38
2018-07-02T14:41:06.156Z,25.55
2018-07-02T14:43:39.338Z,26.31
2018-07-02T14:46:13.145Z,26.19
2018-07-02T14:48:41.735Z,25.06
2018-07-02T14:51:10.380Z,25.00
2018-07-02T14:53:41.214Z,26.15
2018-07-02T14:56:09.708Z,25.56
2018-07-02T14:58:38.105Z,25.65
2018-07-02T15:01:07.610Z,26.94
2018-07-02T15:03:38.066Z,26.00
2018-07-02T15:06:07.337Z,26.80
2018-07-02T15:08:35.717Z,25.50
2018-07-02T15:11:04.016Z,24.78
2018-07-02T15:13:32.613Z,25.48
2018-07-02T15:16:00.932Z,25.40
2018-07-02T15:18:29.813Z,25.19
2018-07-02T15:20:58.197Z,24.30
2018-07-02T15:23:27.659Z,24.90
2018-07-02T15:25:57.020Z,24.35
2018-07-02T15:28:26.054Z,25.02
2018-07-02T15:30:54.907Z,24.69
2018-07-02T15:33:26.682Z,25.58
2018-07-02T15:35:55.346Z,26.16
2018-07-02T15:38:23.766Z,25.67
2018-07-02T15:40:52.521Z,25.87
2018-07-02T15:43:20.872Z,24.36
2018-07-02T15:45:49.471Z,25.22
2018-07-02T15:48:17.968Z,24.87
2018-07-02T15:50:46.671Z,25.26
2018-07-02T15:53:15.035Z,25.56
2018-07-02T15:55:43.278Z,25.99
2018-07-02T15:58:11.934Z,25.34
2018-07-02T16:00:40.307Z,24.88
2018-07-02T16:03:08.709Z,24.38
2018-07-02T16:05:37.090Z,24.88
2018-07-02T16:08:05.412Z,26.03
2018-07-02T16:10:33.785Z,24.85
2018-07-02T16:13:02.165Z,25.34
2018-07-02T16:15:30.645Z,24.57
2018-07-02T16:17:58.900Z,26.35
2018-07-02T16:20:28.592Z,26.81
2018-07-02T16:22:56.928Z,25.82
2018-07-02T16:25:25.390Z,27.07
2018-07-02T16:27:53.662Z,26.21
2018-07-02T16:30:22.096Z,26.03
2018-07-02T16:32:50.410Z,25.55
2018-07-02T16:35:18.899Z,25.33
2018-07-02T16:37:47.109Z,25.39
2018-07-02T16:40:16.530Z,24.63
2018-07-02T16:42:44.844Z,25.19
2018-07-02T16:45:13.122Z,25.09
2018-07-02T16:47:41.405Z,25.36
2018-07-02T16:50:15.581Z,26.16
2018-07-02T16:52:44.646Z,24.57
2018-07-02T16:55:12.933Z,26.35
2018-07-02T16:57:41.538Z,25.28
2018-07-02T17:00:09.843Z,26.20
2018-07-02T17:02:38.423Z,26.10
2018-07-02T17:05:06.661Z,25.05
2018-07-02T17:07:34.930Z,26.98
2018-07-02T17:10:03.857Z,25.47
2018-07-02T17:12:32.548Z,26.43
2018-07-02T17:15:00.890Z,25.52
2018-07-02T17:17:29.240Z,25.42
2018-07-02T17:19:57.611Z,26.18
2018-07-02T17:22:27.068Z,25.81
2018-07-02T17:24:56.810Z,27.04
2018-07-02T17:27:25.067Z,26.47
2018-07-02T17:29:53.557Z,26.12
2018-07-02T17:32:24.090Z,26.21
2018-07-02T17:34:52.385Z,25.97
2018-07-02T17:37:20.934Z,26.86
2018-07-02T17:39:49.313Z,26.49
2018-07-02T17:42:17.623Z,26.12
2018-07-02T17:44:45.957Z,26.74
2018-07-02T17:50:15.506Z,27.60
2018-07-02T17:52:43.765Z,26.85
2018-07-02T17:55:12.091Z,27.65
2018-07-02T17:57:40.391Z,27.80
2018-07-02T18:00:08.911Z,27.84
2018-07-02T18:02:37.676Z,27.54
2018-07-02T18:05:06.176Z,27.71
2018-07-02T18:07:34.688Z,27.84
2018-07-02T18:10:03.454Z,28.07
2018-07-02T18:12:32.549Z,29.41
2018-07-02T18:15:01.441Z,29.01
2018-07-02T18:17:40.070Z,28.87
2018-07-02T18:20:08.729Z,28.68
2018-07-02T18:22:37.323Z,29.18
2018-07-02T18:25:06.107Z,27.68
2018-07-02T18:27:34.607Z,29.29
2018-07-02T18:30:03.699Z,28.51
2018-07-02T18:32:33.497Z,28.28
2018-07-02T18:35:06.526Z,28.68
2018-07-02T18:37:35.076Z,28.67
2018-07-02T18:40:31.855Z,28.54
2018-07-02T18:43:00.388Z,29.56
2018-07-02T18:45:28.931Z,29.25
2018-07-02T18:47:57.524Z,28.90
2018-07-02T18:50:25.899Z,29.47
2018-07-02T18:52:54.797Z,30.00
2018-07-02T18:55:23.606Z,30.81
2018-07-02T18:57:53.217Z,30.50
2018-07-02T19:00:22.568Z,31.77
2018-07-02T19:02:51.048Z,31.39
2018-07-02T19:05:23.850Z,32.34
2018-07-02T19:07:52.700Z,31.89
2018-07-02T19:10:21.195Z,32.45
2018-07-02T19:12:49.763Z,31.44
2018-07-02T19:15:18.330Z,33.26
2018-07-02T19:17:47.184Z,34.02
2018-07-02T19:20:15.707Z,33.55
2018-07-02T19:22:44.175Z,32.60
2018-07-02T19:25:12.517Z,34.46
2018-07-02T19:27:41.083Z,33.72
2018-07-02T19:30:10.182Z,35.08
2018-07-02T19:32:38.603Z,35.74
2018-07-02T19:35:08.058Z,35.85
2018-07-02T19:37:36.373Z,35.86
2018-07-02T19:40:04.983Z,37.96
2018-07-02T19:42:33.742Z,37.42
2018-07-02T19:45:02.325Z,39.46
2018-07-02T19:47:30.838Z,39.13
2018-07-02T19:49:59.817Z,38.25
2018-07-02T19:52:29.137Z,38.56
2018-07-02T19:54:57.947Z,37.71
2018-07-02T19:57:27.397Z,38.28
2018-07-02T19:59:56.299Z,38.20
2018-07-02T20:02:25.080Z,38.37
2018-07-02T20:04:53.848Z,34.41
2018-07-02T20:07:26.518Z,37.15
2018-07-02T20:09:55.151Z,36.95
2018-07-02T20:12:23.592Z,37.89
2018-07-02T20:14:52.511Z,37.35
2018-07-02T20:17:21.072Z,37.88
2018-07-02T20:19:49.626Z,37.61
2018-07-02T20:22:18.056Z,38.51
2018-07-02T20:24:46.419Z,36.94
2018-07-02T20:27:14.775Z,38.36
2018-07-02T20:29:43.257Z,37.97
2018-07-02T20:32:11.850Z,37.02
2018-07-02T20:34:40.288Z,35.32
2018-07-02T20:37:08.756Z,35.56
2018-07-02T20:39:37.192Z,36.55
2018-07-02T20:42:05.677Z,35.64
2018-07-02T20:44:34.036Z,36.28
2018-07-02T20:47:02.525Z,36.67
2018-07-02T20:49:31.054Z,35.69
2018-07-02T20:51:59.373Z,36.21
2018-07-02T20:54:27.750Z,35.79
2018-07-02T20:56:56.127Z,36.29
2018-07-02T20:59:24.377Z,34.47
